Time;durP1;ratioP1;P1;durP2;ratioP2;P2;SDS_P1;SDS_P2;PMS_P1;PMS_P2;Temp;Humidity;BMP_temperature;BMP_pressure;BME280_temperature;BME280_humidity;BME280_pressure;Samples;Min_cycle;Max_cycle;Signal;HPM_P1;HPM_P2
2023/09/20 00:01:27;;;;;;;2.83;2.63;;;;;;;20.21;89.06;99572.50;5112151;28;20681;-61
2023/09/20 00:03:54;;;;;;;2.63;2.43;;;;;;;20.14;89.42;99556.47;5111847;28;20699;-61
2023/09/20 00:06:20;;;;;;;2.63;2.53;;;;;;;20.13;89.22;99543.56;5110429;28;20203;-61
2023/09/20 00:08:47;;;;;;;2.93;2.27;;;;;;;20.17;88.78;99545.84;5111509;28;20198;-61
2023/09/20 00:11:15;;;;;;;2.03;1.93;;;;;;;20.15;89.47;99536.47;5111338;28;20678;-62
2023/09/20 00:13:42;;;;;;;2.67;2.57;;;;;;;20.11;90.03;99529.81;5111881;28;20205;-62
2023/09/20 00:16:09;;;;;;;5.10;2.00;;;;;;;20.08;90.48;99532.59;5111110;28;20218;-62
2023/09/20 00:18:38;;;;;;;6.20;2.60;;;;;;;20.11;90.02;99535.84;5111439;28;20202;-62
2023/09/20 00:21:05;;;;;;;2.40;2.30;;;;;;;20.10;90.57;99528.13;5111598;28;20202;-62
2023/09/20 00:23:31;;;;;;;5.03;2.60;;;;;;;20.07;90.16;99536.13;5111651;28;20205;-62
2023/09/20 00:26:00;;;;;;;2.50;2.40;;;;;;;20.09;90.25;99531.69;5111443;28;20190;-62
2023/09/20 00:28:26;;;;;;;2.63;2.43;;;;;;;20.09;90.34;99526.47;5111094;28;20198;-62
2023/09/20 00:30:53;;;;;;;3.70;2.10;;;;;;;20.07;90.66;99533.53;5111350;28;20192;-61
2023/09/20 00:33:20;;;;;;;2.73;2.63;;;;;;;20.07;90.26;99525.72;5110819;28;20206;-61
2023/09/20 00:35:48;;;;;;;3.33;3.13;;;;;;;20.01;89.79;99507.94;5111222;28;20633;-62
2023/09/20 00:38:16;;;;;;;2.80;2.33;;;;;;;20.08;90.37;99515.22;5110692;28;20586;-62
2023/09/20 00:40:44;;;;;;;6.17;2.50;;;;;;;20.09;90.44;99516.06;5111443;28;20199;-61
2023/09/20 00:43:12;;;;;;;2.77;2.57;;;;;;;20.11;90.41;99514.19;5110947;28;20252;-62
2023/09/20 00:45:41;;;;;;;4.60;3.03;;;;;;;20.14;90.34;99513.97;5110677;28;20383;-62
2023/09/20 00:48:12;;;;;;;4.83;2.50;;;;;;;20.18;90.09;99525.84;5111120;28;20217;-62
2023/09/20 00:50:41;;;;;;;2.23;2.13;;;;;;;20.20;90.10;99518.75;5111259;28;20260;-61
2023/09/20 00:53:11;;;;;;;2.63;2.53;;;;;;;20.22;90.18;99522.94;5111054;28;20208;-61
2023/09/20 00:55:40;;;;;;;3.47;2.67;;;;;;;20.23;89.71;99529.81;5110637;28;20309;-61
2023/09/20 00:58:12;;;;;;;2.70;2.33;;;;;;;19.93;90.39;99505.84;5111302;28;20699;-62
2023/09/20 01:00:40;;;;;;;2.80;2.60;;;;;;;19.79;91.82;99519.78;5110607;28;20730;-62
2023/09/20 01:03:08;;;;;;;2.63;2.53;;;;;;;19.69;92.39;99523.91;5111078;28;20250;-63
2023/09/20 01:05:36;;;;;;;3.93;2.70;;;;;;;19.49;93.84;99521.75;5110675;28;20203;-61
2023/09/20 01:08:06;;;;;;;2.27;2.17;;;;;;;19.39;94.49;99505.06;5110878;28;20739;-62
2023/09/20 01:10:36;;;;;;;2.63;2.43;;;;;;;19.44;94.66;99517.81;5111035;28;20544;-61
2023/09/20 01:13:05;;;;;;;2.20;2.00;;;;;;;19.48;94.59;99514.06;5111071;28;21519;-62
2023/09/20 01:15:33;;;;;;;2.77;2.57;;;;;;;19.51;94.50;99508.69;5110814;28;20243;-61
2023/09/20 01:18:01;;;;;;;2.30;2.13;;;;;;;19.58;94.21;99505.56;5113093;28;20731;-62
2023/09/20 01:20:29;;;;;;;2.73;2.60;;;;;;;19.62;93.66;99512.22;5115057;28;20201;-62
2023/09/20 01:22:58;;;;;;;2.57;2.43;;;;;;;19.51;93.55;99491.31;5115050;28;20204;-61
2023/09/20 01:25:26;;;;;;;1.93;1.83;;;;;;;19.67;93.31;99515.38;5114700;28;20296;-61
2023/09/20 01:27:55;;;;;;;2.10;2.00;;;;;;;19.71;92.91;99514.22;5114373;28;20623;-62
2023/09/20 01:30:25;;;;;;;2.93;2.73;;;;;;;19.76;92.71;99509.56;5114637;28;20259;-61
2023/09/20 01:32:53;;;;;;;3.63;2.00;;;;;;;19.73;92.70;99520.19;5114834;28;20209;-62
2023/09/20 01:35:20;;;;;;;2.50;2.40;;;;;;;19.72;92.47;99513.31;5114534;28;20763;-62
2023/09/20 01:37:46;;;;;;;1.83;1.73;;;;;;;19.66;92.91;99523.28;5114422;28;20204;-61
2023/09/20 01:40:16;;;;;;;2.77;2.20;;;;;;;19.56;92.80;99528.25;5114593;28;20204;-62
2023/09/20 01:42:46;;;;;;;2.87;2.63;;;;;;;19.55;92.55;99531.75;5112923;28;20192;-61
2023/09/20 01:45:14;;;;;;;2.17;2.07;;;;;;;19.64;92.63;99530.34;5114531;28;20209;-61
2023/09/20 01:47:44;;;;;;;3.13;2.47;;;;;;;19.70;92.35;99530.78;5114079;28;20223;-62
2023/09/20 01:50:12;;;;;;;2.10;2.00;;;;;;;19.76;91.43;99530.38;5114406;28;20738;-62
2023/09/20 01:52:39;;;;;;;1.90;1.70;;;;;;;19.67;91.44;99528.38;5114002;28;20254;-61
2023/09/20 01:55:11;;;;;;;2.70;2.27;;;;;;;19.73;91.17;99533.19;5114371;28;20193;-62
2023/09/20 01:57:39;;;;;;;2.43;2.27;;;;;;;19.79;91.17;99535.38;5114141;28;20214;-61
2023/09/20 02:00:21;;;;;;;2.20;2.07;;;;;;;19.85;90.80;99529.78;5114052;28;20656;-61
2023/09/20 02:02:49;;;;;;;2.20;2.00;;;;;;;19.87;90.76;99519.28;5113471;28;20294;-62
2023/09/20 02:05:17;;;;;;;2.40;2.20;;;;;;;19.89;90.71;99526.03;5114209;28;20205;-61
2023/09/20 02:07:45;;;;;;;2.23;2.13;;;;;;;19.89;90.56;99536.44;5114015;28;20250;-61
2023/09/20 02:10:12;;;;;;;4.83;2.40;;;;;;;19.93;91.29;99537.09;5114197;28;20207;-62
2023/09/20 02:12:40;;;;;;;2.20;2.10;;;;;;;19.95;91.22;99540.41;5113769;28;20681;-62
2023/09/20 02:15:09;;;;;;;2.47;2.27;;;;;;;19.96;91.17;99534.28;5113361;28;20207;-61
2023/09/20 02:17:36;;;;;;;6.67;2.27;;;;;;;19.99;90.96;99535.84;5113957;28;20647;-62
2023/09/20 02:20:08;;;;;;;2.90;2.77;;;;;;;20.00;90.58;99532.31;5113594;28;20688;-62
2023/09/20 02:22:36;;;;;;;2.73;2.23;;;;;;;20.03;90.05;99532.09;5113540;28;20266;-61
2023/09/20 02:25:05;;;;;;;3.60;2.73;;;;;;;20.03;90.07;99534.69;5113941;28;20570;-62
2023/09/20 02:27:34;;;;;;;2.20;2.10;;;;;;;20.04;90.76;99533.75;5113803;28;20284;-62
2023/09/20 02:30:03;;;;;;;4.17;2.00;;;;;;;20.08;90.96;99535.22;5112441;28;20578;-62
2023/09/20 02:32:30;;;;;;;4.53;2.43;;;;;;;20.11;90.52;99540.22;5112483;28;20206;-61
2023/09/20 02:34:59;;;;;;;2.77;2.53;;;;;;;20.08;90.68;99535.22;5113197;28;20201;-62
2023/09/20 02:37:26;;;;;;;2.47;1.83;;;;;;;20.01;90.53;99534.78;5113551;28;20240;-62
2023/09/20 02:39:53;;;;;;;2.60;2.50;;;;;;;19.95;90.88;99540.41;5113319;28;20198;-62
2023/09/20 02:42:22;;;;;;;2.40;2.20;;;;;;;19.97;90.95;99537.72;5112887;27;20202;-62
2023/09/20 02:44:51;;;;;;;3.93;2.20;;;;;;;19.92;90.87;99530.19;5113417;27;20232;-62
2023/09/20 02:47:20;;;;;;;2.70;2.60;;;;;;;19.92;90.80;99530.19;5113047;28;20313;-62
2023/09/20 02:49:48;;;;;;;5.37;2.83;;;;;;;19.93;90.85;99537.88;5113580;28;20205;-62
2023/09/20 02:52:16;;;;;;;4.60;2.33;;;;;;;19.84;91.56;99538.50;5112897;28;20379;-61
2023/09/20 02:54:43;;;;;;;2.63;2.43;;;;;;;19.50;91.67;99507.00;5113223;28;20200;-62
2023/09/20 02:57:11;;;;;;;4.20;2.27;;;;;;;19.61;91.76;99536.56;5112782;28;20235;-62
2023/09/20 02:59:39;;;;;;;4.80;2.43;;;;;;;19.53;92.26;99544.03;5113134;28;20202;-62
2023/09/20 03:02:06;;;;;;;2.67;2.47;;;;;;;19.45;92.59;99543.69;5112517;28;20258;-61
2023/09/20 03:04:34;;;;;;;2.40;2.30;;;;;;;19.39;93.11;99538.84;5111257;28;20206;-62
2023/09/20 03:07:01;;;;;;;4.03;3.33;;;;;;;19.38;93.01;99543.25;5112970;28;20734;-61
2023/09/20 03:09:32;;;;;;;1.87;1.77;;;;;;;19.34;93.46;99544.38;5112846;28;20578;-62
2023/09/20 03:11:59;;;;;;;2.40;2.30;;;;;;;19.33;93.41;99542.69;5112269;28;20209;-62
2023/09/20 03:14:26;;;;;;;1.97;1.87;;;;;;;19.34;93.51;99539.16;5112437;28;20192;-62
2023/09/20 03:16:52;;;;;;;3.53;3.23;;;;;;;19.34;93.75;99543.53;5112936;28;20705;-61
2023/09/20 03:19:20;;;;;;;2.83;2.33;;;;;;;19.33;93.25;99541.84;5112848;28;20221;-62
2023/09/20 03:21:50;;;;;;;4.00;2.03;;;;;;;19.18;93.95;99537.63;5109810;28;20217;-62
2023/09/20 03:24:17;;;;;;;2.50;2.30;;;;;;;19.21;93.95;99550.44;5112976;28;20202;-61
2023/09/20 03:26:44;;;;;;;3.17;3.07;;;;;;;19.19;94.22;99555.72;5112484;28;20573;-61
2023/09/20 03:29:11;;;;;;;2.63;2.47;;;;;;;19.20;94.05;99546.16;5112792;28;20609;-62
2023/09/20 03:31:38;;;;;;;2.93;1.80;;;;;;;19.22;93.64;99531.31;5112029;28;20207;-62
2023/09/20 03:34:05;;;;;;;2.17;2.07;;;;;;;19.31;93.40;99547.16;5112278;28;20233;-62
2023/09/20 03:36:32;;;;;;;3.03;2.83;;;;;;;19.26;93.54;99535.34;5111772;28;20217;-62
2023/09/20 03:39:00;;;;;;;2.27;2.10;;;;;;;19.31;93.20;99554.97;5112523;28;20197;-62
2023/09/20 03:41:27;;;;;;;4.30;2.17;;;;;;;19.32;93.58;99561.81;5111533;28;20198;-62
2023/09/20 03:43:56;;;;;;;1.80;1.70;;;;;;;19.32;93.86;99561.00;5112278;28;20268;-62
2023/09/20 03:46:22;;;;;;;2.53;2.43;;;;;;;19.32;93.97;99555.78;5111964;28;20271;-61
2023/09/20 03:48:49;;;;;;;4.03;2.00;;;;;;;19.31;93.67;99551.53;5111993;28;20197;-61
2023/09/20 03:51:16;;;;;;;2.57;2.47;;;;;;;19.31;93.46;99559.31;5111674;28;20206;-62
2023/09/20 03:53:43;;;;;;;3.53;2.93;;;;;;;19.31;93.52;99561.91;5112260;28;20201;-62
2023/09/20 03:56:12;;;;;;;3.23;2.87;;;;;;;19.28;93.87;99560.34;5111812;28;20216;-62
2023/09/20 03:58:40;;;;;;;2.93;2.73;;;;;;;19.28;93.87;99562.13;5111879;28;20198;-62
2023/09/20 04:01:08;;;;;;;3.00;2.80;;;;;;;19.25;93.35;99564.91;5111485;28;20197;-62
2023/09/20 04:03:36;;;;;;;5.27;3.27;;;;;;;19.25;93.79;99572.69;5111877;28;20203;-62
2023/09/20 04:06:03;;;;;;;2.70;2.60;;;;;;;19.23;93.67;99570.19;5111475;28;20197;-62
2023/09/20 04:08:30;;;;;;;2.63;2.43;;;;;;;19.21;93.54;99566.03;5111281;28;20209;-61
2023/09/20 04:10:57;;;;;;;3.03;2.53;;;;;;;19.20;93.14;99570.38;5111579;28;20224;-62
2023/09/20 04:13:26;;;;;;;3.03;2.93;;;;;;;19.19;93.31;99566.09;5112087;28;20254;-61
2023/09/20 04:15:53;;;;;;;2.40;2.30;;;;;;;19.18;93.21;99579.22;5111297;28;20208;-61
2023/09/20 04:18:19;;;;;;;2.50;2.30;;;;;;;19.16;93.04;99578.47;5111355;28;20225;-62
2023/09/20 04:20:47;;;;;;;3.40;3.20;;;;;;;19.13;93.11;99576.03;5111057;28;20203;-61
2023/09/20 04:23:13;;;;;;;4.27;2.07;;;;;;;19.12;93.51;99580.44;5111343;28;20231;-62
2023/09/20 04:25:40;;;;;;;2.60;2.10;;;;;;;19.03;93.42;99567.19;5111659;28;20244;-61
2023/09/20 04:28:07;;;;;;;2.57;2.47;;;;;;;19.08;93.82;99567.72;5110684;28;20200;-62
2023/09/20 04:30:38;;;;;;;2.90;2.80;;;;;;;19.05;94.03;99573.09;5110488;28;20192;-62
2023/09/20 04:33:06;;;;;;;2.77;2.67;;;;;;;19.04;93.85;99581.81;5108881;28;20204;-61
2023/09/20 04:35:34;;;;;;;4.23;2.10;;;;;;;19.02;94.82;99581.09;5110565;28;20571;-61
2023/09/20 04:38:01;;;;;;;2.37;2.10;;;;;;;18.99;94.59;99578.69;5110861;28;20213;-62
2023/09/20 04:40:28;;;;;;;2.33;2.23;;;;;;;18.97;94.94;99580.53;5110398;28;20227;-61
2023/09/20 04:42:56;;;;;;;4.57;2.53;;;;;;;18.93;95.14;99569.50;5110926;28;20224;-62
2023/09/20 04:45:22;;;;;;;2.87;2.77;;;;;;;18.92;95.48;99573.03;5110768;28;20702;-62
2023/09/20 04:47:50;;;;;;;2.87;2.67;;;;;;;18.92;95.72;99570.44;5111019;28;20223;-61
2023/09/20 04:50:17;;;;;;;2.77;2.57;;;;;;;18.94;95.17;99576.34;5110990;28;20201;-62
2023/09/20 04:52:45;;;;;;;2.37;2.13;;;;;;;18.97;95.49;99572.72;5110363;28;20200;-62
2023/09/20 04:55:12;;;;;;;2.40;2.20;;;;;;;18.87;95.76;99570.69;5110928;28;20237;-61
2023/09/20 04:57:38;;;;;;;2.30;2.10;;;;;;;18.99;96.04;99581.28;5111076;28;20223;-61
2023/09/20 05:00:20;;;;;;;3.63;2.83;;;;;;;19.02;96.77;99586.28;5110976;28;20736;-62
2023/09/20 05:02:47;;;;;;;2.10;2.00;;;;;;;19.10;96.43;99591.84;5110622;28;20212;-62
2023/09/20 05:05:17;;;;;;;2.27;2.17;;;;;;;19.18;96.17;99584.41;5110718;28;20203;-62
2023/09/20 05:07:44;;;;;;;1.93;1.83;;;;;;;19.25;95.93;99590.91;5110699;28;20189;-62
2023/09/20 05:10:11;;;;;;;2.40;2.30;;;;;;;19.38;95.80;99586.59;5110660;28;20208;-62
2023/09/20 05:12:39;;;;;;;2.60;2.40;;;;;;;19.54;95.20;99597.72;5110936;28;20628;-61
2023/09/20 05:15:06;;;;;;;2.67;2.47;;;;;;;19.72;94.75;99593.09;5109452;28;20639;-62
2023/09/20 05:17:34;;;;;;;2.37;2.27;;;;;;;19.85;93.56;99592.22;5110611;28;21031;-62
2023/09/20 05:20:01;;;;;;;2.43;2.33;;;;;;;19.99;92.33;99599.13;5110104;28;20688;-62
2023/09/20 05:22:30;;;;;;;5.13;2.13;;;;;;;20.13;92.18;99598.22;5109677;28;20196;-62
2023/09/20 05:24:57;;;;;;;4.57;1.87;;;;;;;20.26;91.25;99607.72;5109107;28;20294;-62
2023/09/20 05:27:24;;;;;;;3.67;1.80;;;;;;;20.42;90.88;99607.53;5109009;28;20193;-62
2023/09/20 05:29:52;;;;;;;3.50;2.40;;;;;;;20.55;89.65;99608.38;5110637;28;20206;-62
2023/09/20 05:32:20;;;;;;;2.70;2.60;;;;;;;20.71;88.96;99609.00;5110340;28;20210;-61
2023/09/20 05:34:47;;;;;;;2.53;2.00;;;;;;;20.84;87.57;99615.03;5110653;28;20614;-68
2023/09/20 05:37:14;;;;;;;2.97;2.20;;;;;;;20.93;86.79;99614.44;5109839;28;20271;-62
2023/09/20 05:39:43;;;;;;;2.10;2.00;;;;;;;21.06;86.58;99608.38;5110246;28;20203;-62
2023/09/20 05:42:11;;;;;;;1.87;1.77;;;;;;;21.19;85.81;99604.84;5110433;28;20207;-62
2023/09/20 05:44:38;;;;;;;2.43;2.23;;;;;;;21.42;85.34;99616.25;5108977;28;20206;-62
2023/09/20 05:47:08;;;;;;;3.60;2.03;;;;;;;21.63;84.83;99614.69;5110101;28;20223;-61
2023/09/20 05:49:35;;;;;;;2.17;2.07;;;;;;;21.77;84.40;99600.66;5110303;28;20199;-62
2023/09/20 05:52:02;;;;;;;3.33;3.07;;;;;;;22.08;82.57;99617.53;5109370;28;20198;-62
2023/09/20 05:54:29;;;;;;;2.50;2.40;;;;;;;22.30;80.49;99630.66;5110307;28;20198;-61
2023/09/20 05:56:59;;;;;;;7.87;2.97;;;;;;;22.48;79.92;99629.28;5108693;28;20275;-62
2023/09/20 05:59:26;;;;;;;2.23;2.13;;;;;;;22.65;78.12;99631.44;5110724;28;20227;-61
2023/09/20 06:01:53;;;;;;;3.43;3.23;;;;;;;22.76;77.55;99643.72;5110408;28;20937;-62
2023/09/20 06:04:20;;;;;;;4.20;3.90;;;;;;;22.89;76.53;99642.69;5113221;28;20686;-62
2023/09/20 06:06:47;;;;;;;4.70;4.40;;;;;;;23.09;75.05;99642.91;5114516;28;20739;-62
2023/09/20 06:09:15;;;;;;;3.53;3.33;;;;;;;23.19;75.93;99636.03;5114636;28;20199;-62
2023/09/20 06:11:42;;;;;;;3.20;3.00;;;;;;;23.32;76.08;99636.72;5114214;28;20653;-61
2023/09/20 06:14:10;;;;;;;4.50;3.37;;;;;;;23.42;74.48;99642.94;5114417;28;20264;-62
2023/09/20 06:16:37;;;;;;;3.87;3.67;;;;;;;23.52;73.54;99646.50;5114447;28;20232;-62
2023/09/20 06:19:03;;;;;;;4.37;2.93;;;;;;;23.67;74.24;99626.94;5113953;28;20222;-62
2023/09/20 06:21:31;;;;;;;2.70;2.50;;;;;;;23.88;72.93;99638.28;5113730;28;20198;-62
2023/09/20 06:23:58;;;;;;;2.63;2.53;;;;;;;24.01;71.91;99644.19;5113630;28;20290;-62
2023/09/20 06:26:25;;;;;;;1.90;1.80;;;;;;;24.09;71.74;99647.97;5113986;27;20198;-62
2023/09/20 06:28:52;;;;;;;2.17;2.07;;;;;;;24.18;71.95;99653.31;5113955;28;20187;-61
2023/09/20 06:31:20;;;;;;;2.20;2.10;;;;;;;24.25;70.51;99653.66;5112575;28;20559;-62
2023/09/20 06:33:47;;;;;;;1.80;1.70;;;;;;;24.34;70.69;99650.25;5113340;28;20202;-62
2023/09/20 06:36:17;;;;;;;3.07;1.70;;;;;;;24.28;69.79;99643.75;5112712;28;20233;-62
2023/09/20 06:38:44;;;;;;;1.77;1.67;;;;;;;24.37;70.42;99647.38;5112542;28;20236;-62
2023/09/20 06:41:13;;;;;;;2.13;1.93;;;;;;;24.40;71.25;99647.13;5110404;28;20211;-63
2023/09/20 06:43:40;;;;;;;1.80;1.70;;;;;;;24.51;70.76;99644.47;5113069;28;20198;-66
2023/09/20 06:46:07;;;;;;;1.97;1.87;;;;;;;24.63;70.64;99651.28;5111864;28;20345;-64
2023/09/20 06:48:37;;;;;;;1.83;1.73;;;;;;;24.67;70.00;99636.97;5113048;28;20194;-67
2023/09/20 06:51:04;;;;;;;3.13;1.73;;;;;;;24.82;69.48;99659.28;5111770;28;20238;-66
2023/09/20 06:53:31;;;;;;;3.53;2.20;;;;;;;24.87;68.75;99651.88;5112571;28;20233;-64
2023/09/20 06:55:59;;;;;;;1.90;1.80;;;;;;;24.98;69.59;99654.41;5112669;28;20199;-66
2023/09/20 06:58:26;;;;;;;1.70;1.60;;;;;;;25.16;68.27;99659.03;5112493;28;20215;-65
2023/09/20 07:00:53;;;;;;;1.50;1.50;;;;;;;25.19;69.04;99656.16;5111019;28;20289;-68
2023/09/20 07:03:20;;;;;;;1.77;1.67;;;;;;;25.37;68.59;99654.53;5111601;28;20213;-67
2023/09/20 07:05:50;;;;;;;3.87;2.00;;;;;;;25.40;66.20;99660.34;5110180;27;20236;-66
2023/09/20 07:08:19;;;;;;;3.17;2.27;;;;;;;25.65;66.27;99663.50;5110899;28;20191;-66
2023/09/20 07:10:46;;;;;;;3.77;2.03;;;;;;;25.73;65.68;99656.59;5112600;28;20217;-67
2023/09/20 07:13:19;;;;;;;1.77;1.67;;;;;;;25.87;65.33;99658.84;5111976;28;20684;-67
2023/09/20 07:15:46;;;;;;;2.00;1.90;;;;;;;26.03;65.75;99659.13;5112023;28;20206;-67
2023/09/20 07:18:13;;;;;;;1.67;1.50;;;;;;;26.18;66.13;99656.94;5112783;28;20769;-67
2023/09/20 07:20:41;;;;;;;1.80;1.70;;;;;;;26.33;63.72;99659.97;5112510;28;20668;-66
2023/09/20 07:23:12;;;;;;;1.87;1.77;;;;;;;26.57;61.89;99669.06;5112604;28;20209;-67
2023/09/20 07:25:40;;;;;;;1.33;1.33;;;;;;;26.72;63.04;99666.81;5112029;28;20693;-67
2023/09/20 07:28:07;;;;;;;1.47;1.37;;;;;;;26.78;64.04;99670.69;5111725;28;20194;-67
2023/09/20 07:30:40;;;;;;;1.93;1.83;;;;;;;26.94;62.09;99665.69;5111710;28;20199;-68
2023/09/20 07:33:11;;;;;;;1.63;1.63;;;;;;;26.90;62.08;99665.16;5110549;28;20252;-69
2023/09/20 07:35:39;;;;;;;2.67;1.80;;;;;;;26.90;62.86;99665.16;5109713;28;20202;-67
2023/09/20 07:38:12;;;;;;;1.70;1.60;;;;;;;26.76;62.81;99662.94;5110983;28;20218;-66
2023/09/20 07:40:40;;;;;;;5.50;2.10;;;;;;;26.83;64.88;99658.81;5109714;28;20267;-68
2023/09/20 07:43:07;;;;;;;1.93;1.83;;;;;;;26.91;65.54;99660.72;5110846;28;20674;-67
2023/09/20 07:45:38;;;;;;;1.17;1.17;;;;;;;27.00;63.00;99663.31;5110824;27;20563;-67
2023/09/20 07:48:11;;;;;;;1.17;1.17;;;;;;;27.11;62.20;99659.66;5110690;28;20198;-67
2023/09/20 07:50:41;;;;;;;1.50;1.40;;;;;;;27.22;63.36;99669.19;5110520;27;20228;-68
2023/09/20 07:53:10;;;;;;;1.57;1.47;;;;;;;27.37;63.26;99662.44;5110263;27;20218;-67
2023/09/20 07:55:41;;;;;;;1.27;1.27;;;;;;;27.54;62.65;99665.16;5110182;28;20195;-67
2023/09/20 07:58:08;;;;;;;1.33;1.33;;;;;;;27.56;63.24;99667.66;5110472;28;20738;-65
2023/09/20 08:00:39;;;;;;;1.63;1.53;;;;;;;27.64;63.23;99657.22;5110787;28;20663;-67
2023/09/20 08:03:06;;;;;;;1.47;1.47;;;;;;;27.66;60.67;99657.88;5109817;28;20203;-67
2023/09/20 08:05:33;;;;;;;1.33;1.20;;;;;;;27.65;62.85;99656.25;5111938;27;20252;-69
2023/09/20 08:08:00;;;;;;;1.20;1.20;;;;;;;27.63;61.65;99645.84;5111219;28;20282;-68
2023/09/20 08:10:28;;;;;;;1.90;1.80;;;;;;;27.86;63.04;99651.50;5111227;28;20667;-68
2023/09/20 08:12:55;;;;;;;1.70;1.70;;;;;;;27.85;60.49;99641.94;5111569;28;20197;-69
2023/09/20 08:15:22;;;;;;;1.37;1.37;;;;;;;27.96;60.54;99644.38;5110012;27;20194;-68
2023/09/20 08:20:38;;;;;;;0.87;0.87;;;;;;;28.23;59.46;99640.00;5110195;28;20343;-68
2023/09/20 09:01:38;;;;;;;1.48;1.38;;;;;;;29.04;58.23;99604.44;5111532;28;20190;-68
2023/09/20 09:04:08;;;;;;;1.23;1.15;;;;;;;29.23;58.60;99603.34;5111492;28;20191;-68
2023/09/20 09:06:35;;;;;;;1.40;1.30;;;;;;;29.34;55.93;99600.47;5110742;28;20557;-69
2023/09/20 09:09:03;;;;;;;1.30;1.30;;;;;;;29.50;55.08;99600.50;5111417;28;20554;-69
2023/09/20 09:11:30;;;;;;;1.30;1.20;;;;;;;29.57;57.52;99602.31;5111413;28;20214;-69
2023/09/20 09:14:00;;;;;;;1.27;1.17;;;;;;;29.61;53.64;99598.34;5110513;28;20194;-68
2023/09/20 09:16:31;;;;;;;0.95;0.95;;;;;;;29.52;53.57;99593.22;5111177;28;20209;-69
2023/09/20 09:18:58;;;;;;;3.00;1.42;;;;;;;29.61;55.77;99592.25;5111038;28;20210;-68
2023/09/20 09:21:27;;;;;;;1.55;1.48;;;;;;;29.60;56.62;99590.59;5111012;28;20274;-69
2023/09/20 09:23:54;;;;;;;1.10;1.10;;;;;;;29.57;54.16;99596.19;5111261;28;20194;-68
2023/09/20 09:26:21;;;;;;;1.20;1.20;;;;;;;29.80;54.32;99586.66;5111377;28;20221;-69
2023/09/20 09:28:48;;;;;;;1.10;1.10;;;;;;;29.98;52.81;99590.00;5111342;28;20739;-68
2023/09/20 09:31:17;;;;;;;1.08;1.08;;;;;;;30.15;50.43;99589.00;5110833;28;20205;-68
2023/09/20 09:33:44;;;;;;;2.05;1.17;;;;;;;30.15;51.10;99586.34;5111269;28;20194;-68
2023/09/20 09:36:12;;;;;;;0.95;0.95;;;;;;;30.14;51.14;99579.44;5111451;28;21114;-68
2023/09/20 09:38:41;;;;;;;1.30;1.20;;;;;;;30.24;53.08;99583.72;5111929;28;20218;-68
2023/09/20 09:41:09;;;;;;;1.13;1.13;;;;;;;30.47;50.71;99584.69;5114867;28;20195;-69
2023/09/20 09:43:37;;;;;;;1.27;1.27;;;;;;;30.66;49.09;99584.31;5112222;28;20247;-69
2023/09/20 09:46:08;;;;;;;1.45;1.45;;;;;;;30.69;52.39;99576.88;5114008;27;20230;-68
2023/09/20 09:48:37;;;;;;;1.50;1.40;;;;;;;30.58;50.47;99576.38;5114268;28;20222;-68
2023/09/20 09:51:06;;;;;;;1.25;1.10;;;;;;;30.53;51.83;99568.16;5112618;28;20246;-68
2023/09/20 09:53:34;;;;;;;2.58;1.23;;;;;;;30.59;49.60;99575.41;5113086;28;20202;-68
2023/09/20 09:56:04;;;;;;;1.10;1.10;;;;;;;30.56;48.72;99570.44;5109962;28;20199;-68
2023/09/20 09:58:32;;;;;;;1.60;1.38;;;;;;;30.58;47.08;99571.94;5111055;28;20222;-68
2023/09/20 10:00:59;;;;;;;1.15;1.15;;;;;;;30.57;48.20;99564.16;5112517;28;20202;-68
2023/09/20 10:03:32;;;;;;;1.40;1.30;;;;;;;30.59;48.58;99570.13;5112782;28;20667;-68
2023/09/20 10:06:09;;;;;;;1.30;1.30;;;;;;;30.54;48.17;99560.03;5112347;28;20203;-68
2023/09/20 10:08:39;;;;;;;1.50;1.50;;;;;;;30.38;46.59;99560.03;5113066;28;20190;-68
2023/09/20 10:11:06;;;;;;;1.10;1.10;;;;;;;30.46;48.21;99546.00;5112350;28;20240;-68
2023/09/20 10:13:35;;;;;;;1.42;1.40;;;;;;;30.46;48.10;99546.84;5113416;28;20681;-68
2023/09/20 10:16:04;;;;;;;1.60;1.50;;;;;;;30.47;49.12;99521.22;5113457;27;20581;-67
2023/09/20 10:18:33;;;;;;;1.30;1.20;;;;;;;30.62;47.36;99543.31;5112171;28;20309;-68
2023/09/20 10:21:10;;;;;;;1.60;1.50;;;;;;;30.50;46.24;99536.75;5113227;28;20239;-68
2023/09/20 10:23:39;;;;;;;1.30;1.30;;;;;;;30.60;49.42;99532.88;5111878;28;20194;-67
2023/09/20 10:26:13;;;;;;;1.20;1.20;;;;;;;30.65;46.14;99535.03;5112459;28;20205;-67
2023/09/20 10:28:41;;;;;;;1.45;1.35;;;;;;;30.68;48.31;99529.38;5109660;28;20692;-68
2023/09/20 10:31:14;;;;;;;1.52;1.42;;;;;;;30.50;46.75;99518.22;5111985;28;20230;-68
2023/09/20 10:33:45;;;;;;;1.20;1.20;;;;;;;30.66;46.35;99518.16;5110873;28;20738;-69
2023/09/20 10:36:15;;;;;;;1.20;1.20;;;;;;;30.73;45.54;99515.66;5112085;28;20586;-69
2023/09/20 10:38:44;;;;;;;1.33;1.25;;;;;;;30.91;44.36;99509.09;5110905;28;20308;-68
2023/09/20 10:41:12;;;;;;;1.00;1.00;;;;;;;30.93;43.02;99517.69;5110524;28;20446;-66
2023/09/20 10:43:46;;;;;;;2.20;1.35;;;;;;;30.78;41.90;99516.78;5112002;28;20572;-66
2023/09/20 10:46:14;;;;;;;0.90;0.90;;;;;;;30.70;42.35;99511.50;5110807;28;20288;-66
2023/09/20 10:48:43;;;;;;;0.98;0.98;;;;;;;30.51;41.81;99523.31;5112210;28;20199;-66
2023/09/20 10:51:11;;;;;;;1.05;1.05;;;;;;;30.66;44.68;99515.50;5108440;28;20202;-66
2023/09/20 10:53:57;;;;;;;2.33;1.50;;;;;;;30.90;45.56;99512.75;5112864;28;20261;-67
2023/09/20 10:56:54;;;;;;;1.60;1.50;;;;;;;30.69;45.00;99515.16;5112512;28;20202;-67
2023/09/20 10:59:22;;;;;;;1.10;1.10;;;;;;;30.87;44.85;99517.56;5112870;28;20231;-67
2023/09/20 11:01:52;;;;;;;1.13;1.13;;;;;;;30.84;44.46;99505.50;5112629;28;20663;-67
2023/09/20 11:04:19;;;;;;;1.00;1.00;;;;;;;30.99;45.45;99501.13;5112964;28;20202;-67
2023/09/20 11:06:46;;;;;;;1.02;1.02;;;;;;;31.14;44.76;99504.72;5112811;28;20580;-67
2023/09/20 11:09:16;;;;;;;1.48;1.48;;;;;;;31.09;43.95;99496.44;5111688;28;20199;-66
2023/09/20 11:11:44;;;;;;;0.80;0.80;;;;;;;31.01;43.59;99485.91;5112420;28;20195;-67
2023/09/20 11:14:12;;;;;;;1.42;1.33;;;;;;;30.90;44.24;99480.13;5112219;28;20217;-67
2023/09/20 11:16:41;;;;;;;1.50;1.40;;;;;;;31.01;44.42;99482.44;5113128;28;20238;-67
2023/09/20 11:19:10;;;;;;;1.00;1.00;;;;;;;31.03;43.89;99475.97;5113090;28;20250;-67
2023/09/20 11:21:37;;;;;;;1.50;1.40;;;;;;;31.14;42.48;99478.22;5110775;28;20435;-67
2023/09/20 11:24:06;;;;;;;2.40;1.17;;;;;;;31.37;43.27;99477.41;5110346;28;20202;-66
2023/09/20 11:26:34;;;;;;;1.23;1.13;;;;;;;31.27;41.05;99476.81;5111175;28;20579;-66
2023/09/20 11:29:02;;;;;;;1.13;1.13;;;;;;;31.31;41.90;99480.75;5107440;28;20206;-64
2023/09/20 11:31:30;;;;;;;0.88;0.88;;;;;;;31.38;42.08;99476.38;5111058;28;20264;-68
2023/09/20 11:33:58;;;;;;;1.15;1.10;;;;;;;31.49;40.87;99476.78;5112228;27;20582;-68
2023/09/20 11:36:25;;;;;;;1.15;1.08;;;;;;;31.53;40.82;99466.69;5111390;28;20230;-67
2023/09/20 11:38:53;;;;;;;1.17;1.13;;;;;;;31.57;40.03;99479.41;5111467;28;20219;-66
2023/09/20 11:41:22;;;;;;;1.25;1.25;;;;;;;31.50;41.33;99473.19;5111977;28;20206;-67
2023/09/20 11:43:54;;;;;;;0.75;0.75;;;;;;;31.48;40.05;99463.72;5110822;28;20298;-67
2023/09/20 11:46:22;;;;;;;1.00;1.00;;;;;;;31.59;40.89;99466.81;5110515;28;20230;-66
2023/09/20 11:48:49;;;;;;;0.98;0.98;;;;;;;31.49;41.22;99460.06;5110948;28;20252;-67
2023/09/20 11:51:16;;;;;;;1.40;1.30;;;;;;;31.53;43.62;99459.59;5112474;28;20206;-66
2023/09/20 11:53:44;;;;;;;1.25;1.25;;;;;;;31.54;42.04;99457.72;5112209;28;20199;-66
2023/09/20 11:56:11;;;;;;;0.98;0.98;;;;;;;31.61;42.03;99456.00;5111922;28;20213;-67
2023/09/20 11:58:38;;;;;;;1.02;1.02;;;;;;;31.51;42.29;99450.97;5111900;28;20194;-67
2023/09/20 12:01:08;;;;;;;1.67;1.67;;;;;;;31.46;41.20;99445.34;5111982;28;20203;-67
2023/09/20 12:03:36;;;;;;;0.90;0.90;;;;;;;31.40;41.85;99445.25;5111093;28;20256;-67
2023/09/20 12:06:03;;;;;;;0.80;0.80;;;;;;;31.32;41.43;99442.66;5112063;27;20628;-67
2023/09/20 12:08:34;;;;;;;0.70;0.70;;;;;;;31.37;41.39;99441.13;5111858;28;20286;-67
2023/09/20 12:11:01;;;;;;;1.30;1.23;;;;;;;31.39;40.83;99427.69;5111492;27;20255;-67
2023/09/20 12:13:28;;;;;;;1.20;1.10;;;;;;;31.53;42.80;99430.44;5111378;28;20199;-67
2023/09/20 12:15:54;;;;;;;1.45;0.88;;;;;;;31.67;40.80;99439.38;5111916;28;20528;-67
2023/09/20 12:18:25;;;;;;;0.70;0.70;;;;;;;31.76;39.75;99429.56;5111500;28;20206;-67
2023/09/20 12:20:51;;;;;;;0.80;0.80;;;;;;;31.76;40.90;99429.56;5111095;28;20436;-67